Time;durP1;ratioP1;P1;durP2;ratioP2;P2;SDS_P1;SDS_P2;PMS_P1;PMS_P2;Temp;Humidity;BMP_temperature;BMP_pressure;BME280_temperature;BME280_humidity;BME280_pressure;Samples;Min_cycle;Max_cycle;Signal;HPM_P1;HPM_P2
2022/05/12 00:01:02;;;;;;;5.88;1.52;;;;;;;13.81;68.40;101279.00;4861879;29;20034;-69
2022/05/12 00:03:27;;;;;;;6.53;1.63;;;;;;;13.76;67.94;101282.97;4842063;29;20053;-75
2022/05/12 00:05:53;;;;;;;6.53;1.88;;;;;;;13.84;67.47;101292.41;4847952;29;20045;-76
2022/05/12 00:08:18;;;;;;;4.65;1.50;;;;;;;13.79;67.99;101296.38;4857817;29;20529;-75
2022/05/12 00:10:44;;;;;;;5.45;1.40;;;;;;;13.74;67.95;101290.41;4856372;29;20033;-72
2022/05/12 00:13:09;;;;;;;4.68;1.40;;;;;;;13.71;67.42;101298.00;4857433;29;20143;-71
2022/05/12 00:15:37;;;;;;;8.43;1.70;;;;;;;13.63;67.44;101297.72;4858096;29;20037;-77
2022/05/12 00:18:06;;;;;;;4.97;1.83;;;;;;;13.57;68.29;101306.38;4845186;29;20030;-76
2022/05/12 00:20:34;;;;;;;6.95;2.03;;;;;;;13.56;67.54;101301.91;4856454;29;20029;-68
2022/05/12 00:23:21;;;;;;;4.97;1.25;;;;;;;13.57;67.21;101306.38;4840738;29;20037;-77
2022/05/12 00:25:48;;;;;;;7.15;1.30;;;;;;;13.44;68.55;101314.69;4838924;29;20144;-67
2022/05/12 00:28:16;;;;;;;8.70;1.60;;;;;;;13.39;67.90;101306.84;4820406;29;20053;-70
2022/05/12 00:30:42;;;;;;;1.63;0.98;;;;;;;13.39;67.76;101322.38;4857186;29;20489;-77
2022/05/12 00:33:08;;;;;;;2.97;1.20;;;;;;;13.33;68.61;101318.22;4857655;29;20033;-76
2022/05/12 00:35:34;;;;;;;4.85;1.65;;;;;;;13.29;68.74;101322.19;4841171;29;20076;-69
2022/05/12 00:38:00;;;;;;;5.55;1.25;;;;;;;13.25;68.16;101320.69;4856479;29;20061;-76
2022/05/12 00:40:25;;;;;;;4.13;1.50;;;;;;;13.20;68.61;101329.19;4823229;29;20048;-76
2022/05/12 00:43:30;;;;;;;1.73;1.20;;;;;;;13.23;67.39;101330.84;4859202;29;20124;-73
2022/05/12 00:45:55;;;;;;;2.28;1.15;;;;;;;13.16;67.90;101330.41;4820520;29;20060;-75
2022/05/12 00:48:20;;;;;;;3.63;1.70;;;;;;;13.15;68.26;101322.31;4857810;29;20049;-68
2022/05/12 00:50:46;;;;;;;5.43;1.63;;;;;;;13.07;68.78;101333.84;4861046;29;20398;-67
2022/05/12 00:53:12;;;;;;;2.03;1.20;;;;;;;13.05;68.52;101341.25;4856809;29;20025;-68
2022/05/12 00:55:40;;;;;;;4.03;0.98;;;;;;;13.01;68.93;101340.63;4840162;29;20038;-74
2022/05/12 00:58:09;;;;;;;4.45;1.52;;;;;;;13.00;68.59;101348.91;4840549;29;20034;-76
2022/05/12 01:00:35;;;;;;;1.42;0.95;;;;;;;12.96;68.60;101347.41;4852800;29;20038;-69
2022/05/12 01:03:07;;;;;;;3.85;1.00;;;;;;;12.96;68.22;101348.31;4857318;29;20041;-77
2022/05/12 01:05:33;;;;;;;5.15;1.55;;;;;;;12.90;68.33;101343.28;4857306;29;20508;-77
2022/05/12 01:07:58;;;;;;;2.53;1.10;;;;;;;12.86;68.97;101351.81;4857480;29;20039;-68
2022/05/12 01:10:25;;;;;;;1.83;1.15;;;;;;;12.83;68.95;101349.31;4856535;29;20081;-69
2022/05/12 01:12:52;;;;;;;8.95;1.42;;;;;;;12.77;69.36;101348.75;4840748;29;20045;-72
2022/05/12 01:15:21;;;;;;;6.95;1.50;;;;;;;12.78;68.49;101360.59;4864054;29;20032;-74
2022/05/12 01:17:47;;;;;;;3.10;1.02;;;;;;;12.72;69.46;101358.28;4857323;29;20113;-70
2022/05/12 01:20:15;;;;;;;3.00;1.27;;;;;;;12.67;69.00;101360.47;4857568;29;20041;-74
2022/05/12 01:22:59;;;;;;;3.20;1.23;;;;;;;12.65;69.11;101366.06;4860344;29;20056;-69
2022/05/12 01:25:28;;;;;;;4.63;1.10;;;;;;;12.60;69.84;101370.13;4859162;29;20410;-69
2022/05/12 01:27:53;;;;;;;2.15;0.93;;;;;;;12.54;69.09;101371.41;4839653;29;20049;-69
2022/05/12 01:30:22;;;;;;;4.53;1.00;;;;;;;12.48;69.34;101375.47;4863205;29;20042;-76
2022/05/12 01:32:47;;;;;;;2.95;1.27;;;;;;;12.40;70.06;101377.88;4858698;29;20041;-76
2022/05/12 01:35:15;;;;;;;2.33;1.48;;;;;;;12.30;69.88;101382.22;4859927;29;20619;-69
2022/05/12 01:37:43;;;;;;;4.13;1.00;;;;;;;12.20;70.35;101383.88;4859331;29;20371;-69
2022/05/12 01:40:11;;;;;;;6.65;1.55;;;;;;;12.12;70.37;101389.84;4860151;29;20144;-69
2022/05/12 01:42:37;;;;;;;3.35;1.23;;;;;;;12.06;70.32;101395.75;4859446;29;20045;-75
2022/05/12 01:45:03;;;;;;;2.17;0.95;;;;;;;11.98;70.24;101398.13;4845666;29;20434;-75
2022/05/12 01:47:30;;;;;;;1.90;0.90;;;;;;;11.96;70.66;101409.16;4860011;29;20047;-75
2022/05/12 01:49:55;;;;;;;2.75;1.10;;;;;;;11.90;70.85;101401.41;4855288;29;20042;-76
2022/05/12 01:52:21;;;;;;;6.30;1.35;;;;;;;11.87;70.92;101409.78;4852125;29;20065;-68
2022/05/12 01:54:46;;;;;;;3.30;1.35;;;;;;;11.82;71.25;101402.88;4859970;29;20302;-75
2022/05/12 01:57:11;;;;;;;3.35;1.08;;;;;;;11.77;70.78;101403.19;4860232;29;20045;-68
2022/05/12 01:59:37;;;;;;;4.15;1.17;;;;;;;11.70;71.91;101408.22;4865740;29;20067;-68
2022/05/12 02:02:03;;;;;;;2.13;1.13;;;;;;;11.67;71.17;101404.81;4859945;29;20442;-69
2022/05/12 02:04:29;;;;;;;4.38;1.45;;;;;;;11.64;72.31;101419.50;4859255;29;20041;-68
2022/05/12 02:06:54;;;;;;;7.32;2.30;;;;;;;11.58;72.26;101417.19;4859171;29;20029;-74
2022/05/12 02:09:19;;;;;;;2.70;1.92;;;;;;;11.60;73.14;101426.13;4850184;29;20032;-77
2022/05/12 02:11:45;;;;;;;6.55;1.80;;;;;;;11.58;72.45;101424.50;4862065;29;20033;-75
2022/05/12 02:14:11;;;;;;;5.18;1.85;;;;;;;11.55;72.84;101422.84;4863384;29;20041;-75
2022/05/12 02:16:36;;;;;;;9.57;1.98;;;;;;;11.58;73.65;101425.38;4863944;29;20041;-69
2022/05/12 02:19:05;;;;;;;8.88;2.30;;;;;;;11.55;74.58;101430.16;4859675;29;20042;-75
2022/05/12 02:21:31;;;;;;;13.98;2.40;;;;;;;11.52;74.35;101433.97;4827015;29;20049;-69
2022/05/12 02:23:56;;;;;;;9.07;2.58;;;;;;;11.52;74.00;101436.69;4858228;29;20700;-78
2022/05/12 02:26:22;;;;;;;3.95;1.70;;;;;;;11.47;74.46;101442.47;4858227;29;20033;-70
2022/05/12 02:28:48;;;;;;;8.02;2.10;;;;;;;11.46;74.81;101439.81;4856650;29;20048;-69
2022/05/12 02:31:13;;;;;;;6.30;2.03;;;;;;;11.43;74.10;101440.91;4849951;29;20064;-72
2022/05/12 02:33:38;;;;;;;8.35;2.40;;;;;;;11.42;75.06;101444.63;4857596;29;20041;-76
2022/05/12 02:36:04;;;;;;;6.93;2.05;;;;;;;11.39;74.70;101442.09;4859570;29;20556;-69
2022/05/12 02:38:30;;;;;;;5.22;2.10;;;;;;;11.39;74.42;101452.97;4860359;29;20933;-75
2022/05/12 02:40:55;;;;;;;11.55;2.35;;;;;;;11.39;74.30;101450.25;4859625;29;20116;-74
2022/05/12 02:43:24;;;;;;;13.45;2.33;;;;;;;11.37;74.51;101459.50;4857456;29;20350;-69
2022/05/12 02:46:03;;;;;;;4.20;2.10;;;;;;;11.33;73.81;101458.84;4830445;29;20037;-75
2022/05/12 02:48:31;;;;;;;7.72;2.28;;;;;;;11.27;73.77;101461.94;4857804;29;20509;-70
2022/05/12 02:50:58;;;;;;;2.85;1.70;;;;;;;11.22;73.55;101467.69;4858937;29;20044;-76
2022/05/12 02:53:24;;;;;;;4.50;1.70;;;;;;;11.15;73.79;101466.38;4859111;29;20537;-69
2022/05/12 02:55:49;;;;;;;3.08;1.60;;;;;;;11.12;73.51;101461.09;4858121;29;20029;-69
2022/05/12 02:58:14;;;;;;;6.15;1.80;;;;;;;11.12;74.11;101469.28;4857438;29;20512;-76
2022/05/12 03:00:40;;;;;;;4.78;2.17;;;;;;;11.06;73.48;101464.25;4860435;29;20045;-76
2022/05/12 03:03:07;;;;;;;4.80;2.00;;;;;;;11.00;73.76;101472.78;4829341;29;20045;-70
2022/05/12 03:05:33;;;;;;;5.65;1.80;;;;;;;10.96;73.34;101471.25;4858831;29;20101;-70
2022/05/12 03:07:58;;;;;;;5.32;1.92;;;;;;;10.92;73.11;101473.28;4858652;29;20038;-73
2022/05/12 03:10:23;;;;;;;7.50;2.03;;;;;;;10.88;74.33;101479.03;4865962;29;20033;-76
2022/05/12 03:12:50;;;;;;;5.57;2.92;;;;;;;10.83;74.15;101479.31;4858570;29;20447;-70
2022/05/12 03:15:16;;;;;;;6.25;2.10;;;;;;;10.77;73.97;101481.53;4865967;29;20038;-78
2022/05/12 03:17:43;;;;;;;6.07;2.28;;;;;;;10.70;74.44;101475.63;4858889;29;20049;-70
2022/05/12 03:20:11;;;;;;;6.53;2.58;;;;;;;10.68;74.68;101480.28;4858116;29;20489;-70
2022/05/12 03:22:37;;;;;;;7.38;2.75;;;;;;;10.65;74.68;101478.63;4858559;29;20550;-70
2022/05/12 03:25:03;;;;;;;6.97;2.17;;;;;;;10.63;74.69;101479.69;4858815;29;20044;-75
2022/05/12 03:27:29;;;;;;;6.47;2.20;;;;;;;10.59;75.30;101475.44;4862473;29;20060;-75
2022/05/12 03:29:55;;;;;;;5.85;2.30;;;;;;;10.57;75.19;101482.78;4855839;29;20054;-75
2022/05/12 03:32:20;;;;;;;6.03;2.58;;;;;;;10.54;75.61;101485.69;4857654;29;20037;-75
2022/05/12 03:34:46;;;;;;;8.52;3.47;;;;;;;10.52;75.32;101495.81;4858157;29;20102;-70
2022/05/12 03:37:11;;;;;;;9.48;3.17;;;;;;;10.48;76.46;101495.13;4858566;29;20037;-70
2022/05/12 03:39:38;;;;;;;9.57;4.20;;;;;;;10.43;76.56;101491.81;4834537;29;20033;-76
2022/05/12 03:42:06;;;;;;;6.88;3.08;;;;;;;10.39;76.75;101506.56;4841513;29;20068;-69
2022/05/12 03:44:49;;;;;;;16.75;3.53;;;;;;;10.38;76.34;101512.97;4862720;29;20041;-69
2022/05/12 03:47:21;;;;;;;6.75;2.80;;;;;;;10.37;75.58;101514.81;4857996;29;20502;-69
2022/05/12 03:49:52;;;;;;;9.82;3.25;;;;;;;10.36;76.40;101514.94;4856918;29;20029;-69
2022/05/12 03:52:18;;;;;;;8.23;3.20;;;;;;;10.34;76.40;101516.84;4828903;29;20038;-69
2022/05/12 03:54:44;;;;;;;5.57;3.67;;;;;;;10.28;76.91;101518.09;4858265;29;20045;-72
2022/05/12 03:57:11;;;;;;;9.18;3.50;;;;;;;10.27;77.25;101526.38;4858333;29;20041;-70
2022/05/12 03:59:38;;;;;;;8.73;3.83;;;;;;;10.27;76.94;101520.94;4818537;29;20398;-75
2022/05/12 04:02:07;;;;;;;9.40;4.07;;;;;;;10.24;78.14;101521.97;4857914;29;20129;-70
2022/05/12 04:04:33;;;;;;;11.30;3.80;;;;;;;10.29;76.14;101532.56;4857983;29;20038;-70
2022/05/12 04:06:58;;;;;;;8.52;3.60;;;;;;;10.31;76.59;101538.81;4857042;29;20409;-70
2022/05/12 04:09:25;;;;;;;7.90;3.72;;;;;;;10.32;76.19;101540.56;4848941;29;20038;-69
2022/05/12 04:11:50;;;;;;;11.38;5.13;;;;;;;10.33;77.77;101543.19;4856220;29;20042;-70
2022/05/12 04:14:15;;;;;;;11.48;4.78;;;;;;;10.33;76.86;101543.19;4860940;29;20033;-75
2022/05/12 04:16:41;;;;;;;12.38;4.75;;;;;;;10.32;77.89;101541.44;4861971;29;20037;-75
2022/05/12 04:19:06;;;;;;;15.30;5.25;;;;;;;10.33;78.30;101545.91;4840601;29;20037;-75
2022/05/12 04:21:34;;;;;;;14.38;5.90;;;;;;;10.32;78.69;101546.88;4857729;29;20044;-77
2022/05/12 04:24:09;;;;;;;13.32;4.68;;;;;;;10.36;77.85;101555.72;4857744;29;20034;-77
2022/05/12 04:26:37;;;;;;;11.73;3.90;;;;;;;10.36;77.73;101553.00;4856963;29;20053;-75
2022/05/12 04:29:04;;;;;;;11.93;4.22;;;;;;;10.42;76.87;101563.50;4858164;29;20136;-74
2022/05/12 04:31:29;;;;;;;15.13;5.60;;;;;;;10.34;77.48;101553.06;4857726;29;20041;-70
2022/05/12 04:36:38;;;;;;;14.07;5.95;;;;;;;10.50;79.19;101572.09;4865305;29;20088;-76
2022/05/12 04:39:05;;;;;;;17.50;6.13;;;;;;;10.52;79.18;101575.59;4840763;29;20030;-75
2022/05/12 04:41:30;;;;;;;19.10;5.97;;;;;;;10.53;79.09;101582.75;4857616;29;20041;-70
2022/05/12 04:43:56;;;;;;;13.23;6.35;;;;;;;10.57;78.52;101581.63;4858152;29;20398;-74
2022/05/12 04:46:22;;;;;;;22.20;7.50;;;;;;;10.62;79.56;101582.22;4865550;29;20041;-76
2022/05/12 04:48:47;;;;;;;14.82;7.00;;;;;;;10.62;79.92;101575.91;4852471;29;20124;-69
2022/05/12 04:51:13;;;;;;;17.65;8.05;;;;;;;10.68;79.47;101589.16;4856591;29;20170;-69
2022/05/12 04:53:39;;;;;;;23.33;9.60;;;;;;;10.75;80.27;101595.06;4825591;29;20049;-75
2022/05/12 04:56:04;;;;;;;23.25;8.52;;;;;;;10.81;80.01;101594.69;4853793;29;20042;-69
2022/05/12 04:58:29;;;;;;;19.55;9.20;;;;;;;10.86;80.67;101593.44;4857024;29;20073;-69
2022/05/12 05:00:55;;;;;;;22.08;9.77;;;;;;;10.87;81.01;101584.31;4860745;29;20428;-70
2022/05/12 05:03:20;;;;;;;24.30;9.20;;;;;;;10.97;81.04;101595.50;4858741;29;20033;-70
2022/05/12 05:05:48;;;;;;;26.02;10.30;;;;;;;11.04;80.80;101596.88;4859799;29;20045;-78
2022/05/12 05:08:19;;;;;;;24.77;10.07;;;;;;;11.06;80.89;101603.13;4844431;29;20097;-72
2022/05/12 05:10:44;;;;;;;24.33;10.65;;;;;;;11.15;80.97;101610.72;4863144;29;20079;-70
2022/05/12 05:13:10;;;;;;;25.15;9.55;;;;;;;11.23;80.18;101613.81;4860273;29;20030;-70
2022/05/12 05:15:35;;;;;;;24.42;10.00;;;;;;;11.31;79.82;101626.06;4833297;29;20410;-69
2022/05/12 05:18:02;;;;;;;23.80;10.30;;;;;;;11.35;80.11;101623.06;4860798;29;20294;-77
2022/05/12 05:20:28;;;;;;;26.42;11.43;;;;;;;11.38;80.59;101624.72;4828824;29;20034;-74
2022/05/12 05:22:54;;;;;;;23.90;11.27;;;;;;;11.40;81.31;101630.94;4858079;29;20021;-68
2022/05/12 05:25:20;;;;;;;25.73;11.07;;;;;;;11.42;80.87;101623.53;4857323;29;20117;-70
2022/05/12 05:27:46;;;;;;;25.73;11.02;;;;;;;11.44;80.73;101624.34;4840123;29;20053;-75
2022/05/12 05:30:14;;;;;;;22.98;11.45;;;;;;;11.48;81.42;101631.34;4864322;29;20130;-68
2022/05/12 05:32:40;;;;;;;28.95;11.52;;;;;;;11.55;81.07;101637.25;4846266;29;20392;-77
2022/05/12 05:35:06;;;;;;;22.65;11.82;;;;;;;11.65;80.25;101638.41;4860914;29;20093;-69
2022/05/12 05:37:32;;;;;;;23.95;12.52;;;;;;;11.74;81.17;101637.81;4854451;29;20096;-69
2022/05/12 05:39:57;;;;;;;23.55;11.52;;;;;;;11.81;80.04;101649.22;4859705;29;20477;-70
2022/05/12 05:42:23;;;;;;;38.90;13.50;;;;;;;11.86;82.02;101649.84;4856035;29;20103;-69
2022/05/12 05:44:49;;;;;;;26.45;13.63;;;;;;;11.89;80.65;101655.06;4863239;29;20033;-74
2022/05/12 05:47:15;;;;;;;30.42;12.15;;;;;;;11.92;80.56;101661.22;4860152;29;20095;-76
2022/05/12 05:49:41;;;;;;;29.30;13.15;;;;;;;11.94;81.80;101669.31;4843908;29;20042;-73
2022/05/12 05:54:51;;;;;;;29.90;12.60;;;;;;;12.09;79.70;101686.53;4843297;29;20068;-75
2022/05/12 05:57:24;;;;;;;31.15;13.20;;;;;;;12.16;81.38;101687.84;4865396;29;20383;-71
2022/05/12 05:59:52;;;;;;;29.52;13.25;;;;;;;12.15;80.88;101686.09;4864956;29;20044;-75
2022/05/12 06:02:18;;;;;;;24.02;12.25;;;;;;;12.21;80.71;101694.75;4843265;29;20066;-68
2022/05/12 06:04:43;;;;;;;28.42;13.23;;;;;;;12.24;81.54;101704.59;4860180;29;20041;-69
2022/05/12 06:07:08;;;;;;;34.60;13.65;;;;;;;12.27;81.86;101706.25;4842347;29;20103;-68
2022/05/12 06:09:34;;;;;;;32.45;13.80;;;;;;;12.30;81.61;101703.31;4859074;29;20470;-74
2022/05/12 06:12:00;;;;;;;26.13;13.95;;;;;;;12.34;81.44;101704.88;4858373;29;20496;-68
2022/05/12 06:14:26;;;;;;;30.17;13.43;;;;;;;12.42;81.87;101708.84;4844184;29;20104;-70
2022/05/12 06:16:52;;;;;;;38.03;14.80;;;;;;;12.49;82.04;101706.56;4862033;29;20744;-74
2022/05/12 06:19:18;;;;;;;32.63;15.10;;;;;;;12.50;82.41;101714.69;4842977;29;20034;-75
2022/05/12 06:21:43;;;;;;;31.48;14.80;;;;;;;12.58;81.65;101710.53;4858715;29;20120;-72
2022/05/12 06:24:09;;;;;;;31.55;15.05;;;;;;;12.64;81.21;101711.03;4859189;29;20049;-69
2022/05/12 06:26:34;;;;;;;26.10;13.90;;;;;;;12.66;81.29;101721.84;4843021;29;20107;-77
2022/05/12 06:28:59;;;;;;;29.85;14.60;;;;;;;12.68;81.59;101718.03;4862287;29;20080;-78
2022/05/12 06:31:29;;;;;;;31.30;14.60;;;;;;;12.72;81.29;101722.28;4842947;29;20086;-69
2022/05/12 06:33:55;;;;;;;34.08;14.18;;;;;;;12.79;80.77;101720.03;4862398;29;20490;-75
2022/05/12 06:36:21;;;;;;;23.02;12.32;;;;;;;12.88;79.05;101724.88;4859204;29;20065;-73
2022/05/12 06:38:47;;;;;;;29.60;13.90;;;;;;;12.96;80.01;101725.22;4857853;29;20188;-76
2022/05/12 06:41:13;;;;;;;28.08;14.40;;;;;;;13.13;79.95;101729.50;4836546;29;20061;-68
2022/05/12 06:43:39;;;;;;;32.03;15.18;;;;;;;13.33;81.08;101738.22;4842044;29;20049;-76
2022/05/12 06:46:05;;;;;;;26.27;13.73;;;;;;;13.47;80.18;101744.47;4842611;29;20481;-69
2022/05/12 06:48:31;;;;;;;29.48;13.68;;;;;;;13.60;79.39;101749.94;4855361;29;20094;-74
2022/05/12 06:50:56;;;;;;;32.40;14.20;;;;;;;13.64;79.46;101746.00;4842443;29;20042;-68
2022/05/12 06:53:22;;;;;;;27.38;13.13;;;;;;;13.67;78.63;101750.41;4853424;29;20439;-68
2022/05/12 06:55:47;;;;;;;29.30;14.38;;;;;;;13.76;77.71;101752.47;4840892;29;20489;-67
2022/05/12 06:58:17;;;;;;;33.30;14.07;;;;;;;13.86;77.64;101758.16;4855734;29;20090;-75
2022/05/12 07:00:44;;;;;;;29.75;15.07;;;;;;;13.98;77.87;101758.13;4838128;29;20070;-69
2022/05/12 07:03:12;;;;;;;25.80;14.65;;;;;;;14.22;77.92;101747.28;4859136;29;20124;-70
2022/05/12 07:05:39;;;;;;;23.38;13.40;;;;;;;14.41;75.38;101760.50;4864675;29;20443;-73
2022/05/12 07:08:06;;;;;;;23.95;11.88;;;;;;;14.48;73.79;101767.28;4857397;29;20045;-74
2022/05/12 07:10:32;;;;;;;26.27;12.48;;;;;;;14.51;74.89;101764.34;4858751;29;20069;-68
2022/05/12 07:12:57;;;;;;;25.08;12.77;;;;;;;14.58;73.79;101763.88;4858674;29;20446;-69
2022/05/12 07:15:27;;;;;;;27.42;12.82;;;;;;;14.77;72.96;101765.09;4862158;29;20120;-67
2022/05/12 07:17:55;;;;;;;22.73;12.35;;;;;;;14.95;72.01;101762.84;4858600;29;20033;-73
2022/05/12 07:28:35;;;;;;;31.92;11.75;;;;;;;15.38;69.46;101773.22;4856687;29;20074;-72
2022/05/12 07:31:02;;;;;;;19.77;10.98;;;;;;;15.47;70.65;101778.00;4868191;29;20041;-73
2022/05/12 07:33:31;;;;;;;14.32;10.05;;;;;;;15.55;69.16;101767.31;4858402;29;20034;-68
2022/05/12 07:36:03;;;;;;;22.08;12.43;;;;;;;15.63;68.91;101782.28;4862459;29;20048;-73
2022/05/12 07:38:29;;;;;;;22.35;11.85;;;;;;;15.60;68.17;101782.53;4858460;29;20062;-68
2022/05/12 07:40:54;;;;;;;27.88;12.35;;;;;;;15.59;66.76;101784.41;4858167;29;20121;-74
2022/05/12 07:43:20;;;;;;;19.83;11.65;;;;;;;15.57;66.90;101781.78;4859277;29;20071;-75
2022/05/12 07:45:47;;;;;;;24.02;11.73;;;;;;;15.58;67.28;101785.41;4828653;29;20477;-73
2022/05/12 07:48:13;;;;;;;25.70;12.25;;;;;;;15.78;67.52;101779.22;4858401;29;20485;-68
2022/05/12 07:50:39;;;;;;;20.27;11.27;;;;;;;15.96;65.79;101778.75;4857808;29;20041;-74
2022/05/12 07:53:06;;;;;;;16.23;11.00;;;;;;;16.48;63.92;101793.75;4841595;29;20509;-74
2022/05/12 07:55:32;;;;;;;20.05;9.82;;;;;;;17.16;62.50;101792.63;4858749;29;20438;-74
2022/05/12 07:57:59;;;;;;;15.88;7.60;;;;;;;17.73;60.10;101790.47;4841637;29;20101;-75
2022/05/12 08:00:25;;;;;;;13.00;7.22;;;;;;;18.04;56.24;101789.50;4855571;29;20037;-68
2022/05/12 08:02:51;;;;;;;13.18;6.78;;;;;;;18.07;57.16;101800.28;4856742;29;20128;-75
2022/05/12 08:05:18;;;;;;;12.02;6.97;;;;;;;17.92;56.69;101784.25;4857794;29;20138;-68
2022/05/12 08:07:44;;;;;;;10.38;6.95;;;;;;;17.88;56.67;101799.28;4858426;29;20464;-74
2022/05/12 08:10:10;;;;;;;13.90;7.38;;;;;;;18.02;57.04;101801.69;4869234;29;20482;-67
2022/05/12 08:12:35;;;;;;;12.65;6.43;;;;;;;17.99;56.60;101805.56;4857840;29;20139;-67
2022/05/12 08:15:01;;;;;;;11.43;5.57;;;;;;;17.79;56.77;101800.97;4865969;29;20029;-68
2022/05/12 08:17:26;;;;;;;11.52;6.05;;;;;;;17.72;57.87;101807.97;4826162;29;20022;-67
2022/05/12 08:19:51;;;;;;;14.38;6.72;;;;;;;18.15;57.56;101809.75;4861366;29;20029;-75
2022/05/12 08:22:17;;;;;;;10.73;6.93;;;;;;;18.60;55.03;101813.88;4857835;29;20037;-73
2022/05/12 08:24:42;;;;;;;12.77;5.95;;;;;;;18.41;54.07;101808.25;4857900;29;20045;-69
2022/05/12 08:27:08;;;;;;;10.00;5.28;;;;;;;18.19;53.73;101817.59;4840392;29;20030;-67
2022/05/12 08:29:33;;;;;;;10.77;4.85;;;;;;;18.53;53.92;101814.56;4861477;29;20631;-72
2022/05/12 08:31:58;;;;;;;16.23;5.05;;;;;;;19.02;51.65;101808.19;4847840;29;20041;-72
2022/05/12 08:34:24;;;;;;;10.30;4.45;;;;;;;19.66;51.65;101804.03;4860445;29;20037;-68
2022/05/12 08:36:49;;;;;;;10.02;4.63;;;;;;;20.02;49.36;101793.22;4861466;29;20030;-75
2022/05/12 08:39:16;;;;;;;7.05;3.72;;;;;;;20.33;46.98;101805.78;4865352;29;20025;-74
2022/05/12 08:42:04;;;;;;;8.60;4.30;;;;;;;20.77;49.97;101797.72;4845093;29;20072;-68
2022/05/12 08:44:35;;;;;;;12.32;4.55;;;;;;;20.77;47.95;101805.16;4868524;29;20045;-68
2022/05/12 08:47:03;;;;;;;8.02;3.63;;;;;;;20.28;45.05;101805.31;4867361;29;20490;-74
2022/05/12 08:49:47;;;;;;;9.48;3.60;;;;;;;19.69;47.96;101811.16;4839083;29;20034;-70
2022/05/12 08:52:22;;;;;;;8.55;4.18;;;;;;;19.48;49.31;101803.84;4856090;29;20049;-73
2022/05/12 08:54:53;;;;;;;7.30;3.63;;;;;;;19.91;49.21;101812.72;4856154;29;20553;-73
2022/05/12 08:57:32;;;;;;;6.85;3.40;;;;;;;20.20;48.76;101798.84;4854442;29;20042;-68
2022/05/12 09:00:06;;;;;;;7.85;3.75;;;;;;;20.72;46.14;101805.63;4858745;29;20379;-67
2022/05/12 09:02:50;;;;;;;7.15;3.60;;;;;;;20.79;44.54;101806.72;4844541;29;20053;-67
2022/05/12 09:05:25;;;;;;;6.57;3.67;;;;;;;21.04;43.95;101807.03;4844075;29;20441;-73
2022/05/12 09:08:03;;;;;;;10.48;3.05;;;;;;;20.99;43.97;101815.81;4871592;29;20041;-74
2022/05/12 09:10:46;;;;;;;9.85;3.00;;;;;;;21.31;45.27;101817.19;4848834;29;20612;-72
2022/05/12 09:13:19;;;;;;;6.90;3.22;;;;;;;21.78;42.40;101815.06;4863213;29;20083;-74
2022/05/12 09:16:04;;;;;;;7.93;3.08;;;;;;;21.95;42.19;101810.50;4864474;29;20565;-67
2022/05/12 09:18:33;;;;;;;8.23;3.28;;;;;;;21.87;41.68;101813.22;4860690;29;20120;-74
2022/05/12 09:21:13;;;;;;;5.57;3.25;;;;;;;21.55;43.73;101811.03;4861101;29;20046;-74
2022/05/12 09:23:39;;;;;;;7.80;3.20;;;;;;;21.46;42.77;101818.41;4861024;29;20065;-72
2022/05/12 09:26:40;;;;;;;6.40;3.45;;;;;;;21.40;45.60;101819.00;4860753;29;20520;-73
2022/05/12 09:29:08;;;;;;;5.97;3.08;;;;;;;21.21;43.27;101816.38;4843676;29;20060;-73
2022/05/12 09:31:34;;;;;;;7.18;3.13;;;;;;;21.28;42.98;101823.91;4867857;29;20041;-66
2022/05/12 09:34:14;;;;;;;7.20;3.38;;;;;;;21.40;41.55;101816.25;4860272;29;20044;-68
2022/05/12 09:36:40;;;;;;;7.32;3.17;;;;;;;21.44;41.61;101814.91;4853507;29;20033;-68
2022/05/12 09:39:05;;;;;;;8.15;3.40;;;;;;;21.93;41.50;101818.09;4859135;29;20037;-68
2022/05/12 09:41:38;;;;;;;6.88;3.17;;;;;;;22.23;41.37;101810.38;4859585;29;20045;-70
2022/05/12 09:44:27;;;;;;;6.60;2.92;;;;;;;22.45;41.95;101814.47;4857809;29;20041;-67
2022/05/12 09:47:06;;;;;;;7.90;2.60;;;;;;;22.70;40.36;101807.13;4853168;29;20405;-68
2022/05/12 09:49:35;;;;;;;7.07;3.05;;;;;;;22.74;37.75;101803.00;4859752;29;20052;-73
2022/05/12 09:52:39;;;;;;;4.57;2.45;;;;;;;22.45;39.37;101812.56;4840546;29;20108;-75
2022/05/12 09:55:38;;;;;;;9.18;2.88;;;;;;;22.05;39.29;101808.47;4849082;29;20040;-68
2022/05/12 09:58:14;;;;;;;6.28;2.83;;;;;;;21.81;38.41;101811.06;4828587;29;20080;-70
2022/05/12 10:00:44;;;;;;;4.35;2.83;;;;;;;21.70;39.06;101805.81;4859582;29;20037;-67
2022/05/12 10:09:04;;;;;;;4.85;2.60;;;;;;;22.64;37.89;101795.69;4850956;29;20049;-75
2022/05/12 10:11:38;;;;;;;5.68;2.22;;;;;;;23.10;38.50;101798.13;4864356;29;20065;-70
2022/05/12 10:14:05;;;;;;;7.13;2.92;;;;;;;22.99;35.90;101795.66;4860414;29;20033;-71
2022/05/12 10:16:31;;;;;;;5.93;2.67;;;;;;;23.10;36.27;101800.91;4864849;29;20100;-67
2022/05/12 10:19:02;;;;;;;4.95;2.45;;;;;;;23.32;37.11;101797.47;4859587;29;20033;-74
2022/05/12 10:21:37;;;;;;;8.57;2.50;;;;;;;23.28;34.40;101798.84;4859759;29;20068;-74
2022/05/12 10:24:16;;;;;;;5.00;2.00;;;;;;;23.38;36.73;101795.91;4858972;29;20662;-66
2022/05/12 10:27:00;;;;;;;4.85;2.35;;;;;;;23.62;35.24;101798.69;4859642;29;20716;-72
2022/05/12 10:29:58;;;;;;;5.68;1.80;;;;;;;23.32;36.32;101805.81;4830039;29;20087;-75
2022/05/12 10:32:46;;;;;;;6.13;2.00;;;;;;;22.80;34.85;101807.88;4859336;29;20048;-67
2022/05/12 10:35:20;;;;;;;5.65;2.13;;;;;;;22.60;35.04;101808.13;4859901;29;20053;-67
2022/05/12 10:38:10;;;;;;;3.92;1.80;;;;;;;22.73;35.90;101812.38;4846428;29;20097;-74
2022/05/12 10:41:07;;;;;;;5.40;2.45;;;;;;;23.05;37.17;101809.72;4859256;29;20041;-74
2022/05/12 10:43:48;;;;;;;10.13;2.28;;;;;;;23.56;35.48;101804.09;4812286;29;20494;-70
2022/05/12 10:46:36;;;;;;;6.10;2.03;;;;;;;23.79;35.77;101805.16;4857223;29;20049;-73
2022/05/12 10:49:18;;;;;;;7.22;2.15;;;;;;;23.71;34.72;101802.38;4859801;29;20759;-73
2022/05/12 10:52:04;;;;;;;4.32;2.10;;;;;;;23.49;35.78;101794.69;4859679;29;20045;-75
2022/05/12 10:54:43;;;;;;;4.95;1.90;;;;;;;23.30;36.19;101802.31;4859671;29;20071;-75
2022/05/12 10:57:23;;;;;;;4.82;1.90;;;;;;;23.82;38.55;101799.25;4865902;29;20044;-67
2022/05/12 11:00:12;;;;;;;6.00;2.00;;;;;;;24.37;34.39;101803.19;4859537;29;20038;-74
2022/05/12 11:02:47;;;;;;;3.97;2.33;;;;;;;24.31;32.89;101801.09;4842407;29;20037;-67
2022/05/12 11:05:30;;;;;;;3.70;1.80;;;;;;;23.96;33.46;101794.03;4859230;29;20045;-68
2022/05/12 11:08:14;;;;;;;5.20;2.17;;;;;;;23.36;32.54;101790.53;4858382;29;20494;-67
2022/05/12 11:10:56;;;;;;;3.03;1.60;;;;;;;23.12;35.28;101796.03;4859350;29;20561;-66
2022/05/12 11:13:29;;;;;;;4.75;2.13;;;;;;;23.48;35.23;101782.72;4862660;29;20045;-74
2022/05/12 11:16:00;;;;;;;8.57;2.22;;;;;;;23.45;33.47;101782.19;4848606;29;20041;-75
2022/05/12 11:18:37;;;;;;;6.55;2.33;;;;;;;23.28;34.80;101784.09;4858487;29;20100;-66
2022/05/12 11:21:25;;;;;;;5.45;2.05;;;;;;;22.97;33.93;101781.09;4865987;29;20052;-73
2022/05/12 11:24:21;;;;;;;2.80;1.80;;;;;;;22.57;34.35;101794.63;4859817;29;20064;-67
2022/05/12 11:27:15;;;;;;;3.95;2.05;;;;;;;22.30;35.32;101795.69;4858389;29;20034;-67
2022/05/12 11:30:20;;;;;;;7.13;2.70;;;;;;;22.21;35.49;101779.19;4855971;29;20068;-75
2022/05/12 11:33:04;;;;;;;6.00;2.28;;;;;;;22.48;35.10;101784.53;4847206;29;20065;-68
2022/05/12 11:35:34;;;;;;;4.15;2.63;;;;;;;22.75;35.86;101777.84;4858429;29;20048;-67
2022/05/12 11:38:06;;;;;;;4.13;2.28;;;;;;;23.14;34.50;101760.66;4858386;29;20524;-66
2022/05/12 11:40:41;;;;;;;4.00;2.35;;;;;;;23.63;35.00;101769.00;4857207;29;20074;-67
2022/05/12 11:46:31;;;;;;;;;;;;;;;24.28;33.92;101768.06;4858032;29;20044;-67
2022/05/12 11:49:10;;;;;;;5.13;2.55;;;;;;;23.99;33.19;101779.78;4857940;29;19924;-66
2022/05/12 11:51:48;;;;;;;4.57;2.20;;;;;;;24.02;30.80;101774.75;4858096;29;20045;-67
2022/05/12 11:54:26;;;;;;;5.47;2.58;;;;;;;24.15;33.69;101769.50;4857197;29;20064;-70